Back to Top

Language: 

My Weather Underground Personal Weather Station Historical Data with Graphs...

Delerius Weather Station Historical Data
Daily Summary for December 24, 2017 Units:  Metric    English   Both
« Previous Day
Next Day »
Daily Weekly Monthly Yearly Custom
  High: Low: Average:
Temperature: 13.2 °C 10 °C 11 °C
Dew Point: 9.6 °C 7.1 °C 8.3 °C
Humidity: 88 % 77 % 83 %
Wind Speed: 43.5 km/h 1.6 km/h 20.4 km/h
Wind Gust: 66 km/h - -
Wind:- - WSW
Pressure: 1024.6 hPa 1009.7 hPa -
Precipitation: 0 mm    
Historical Graphs
 
 
Tabular Data for December 24, 2017
Time Temperature Dew Point Pressure Wind Wind Speed Wind Gust Humidity Rainfall Rate (Hourly) solar Conditions
00:04 10.2 °C 8.3 °C 1024.6 hPa West 17.7 km/h 30.6 km/h 88 % 0 mm 0 W/m2
00:09 10.2 °C 8.1 °C 1024.6 hPa WSW 16.1 km/h 24.1 km/h 87 % 0 mm 0 W/m2
00:10 10.2 °C 8.1 °C 1024.6 hPa WSW 17.7 km/h 25.7 km/h 87 % 0 mm 0 W/m2
00:14 10.2 °C 8.1 °C 1024.6 hPa West 19.3 km/h 24.1 km/h 87 % 0 mm 0 W/m2
00:19 10.2 °C 8.1 °C 1024.6 hPa West 16.1 km/h 25.7 km/h 87 % 0 mm 0 W/m2
00:24 10.2 °C 8.1 °C 1024.6 hPa West 16.1 km/h 24.1 km/h 87 % 0 mm 0 W/m2
00:29 10.2 °C 8.1 °C 1024.3 hPa West 14.5 km/h 24.1 km/h 87 % 0 mm 0 W/m2
00:31 10.2 °C 8.1 °C 1024.3 hPa West 16.1 km/h 30.6 km/h 87 % 0 mm 0 W/m2
00:35 10.2 °C 8.1 °C 1024.3 hPa West 11.3 km/h 17.7 km/h 87 % 0 mm 0 W/m2
00:37 10.2 °C 8.1 °C 1024.3 hPa WSW 9.7 km/h 16.1 km/h 87 % 0 mm 0 W/m2
00:42 10.1 °C 8.1 °C 1024.3 hPa WSW 8 km/h 14.5 km/h 87 % 0 mm 0 W/m2
00:45 10 °C 7.9 °C 1024.3 hPa WSW 11.3 km/h 17.7 km/h 87 % 0 mm 0 W/m2
00:50 10.1 °C 8.2 °C 1023.9 hPa WSW 12.9 km/h 20.9 km/h 88 % 0 mm 0 W/m2
00:52 10.1 °C 8.1 °C 1023.9 hPa West 11.3 km/h 22.5 km/h 87 % 0 mm 0 W/m2
00:57 10.1 °C 8.1 °C 1023.9 hPa West 12.9 km/h 20.9 km/h 87 % 0 mm 0 W/m2
00:58 10.1 °C 8.1 °C 1023.9 hPa West 12.9 km/h 19.3 km/h 87 % 0 mm 0 W/m2
01:00 10.1 °C 8.1 °C 1023.9 hPa WSW 12.9 km/h 17.7 km/h 87 % 0 mm 0 W/m2
01:05 10.1 °C 8.1 °C 1023.9 hPa West 8 km/h 19.3 km/h 87 % 0 mm 0 W/m2
01:10 10.1 °C 8.1 °C 1023.9 hPa West 16.1 km/h 24.1 km/h 87 % 0 mm 0 W/m2
01:11 10.1 °C 8.1 °C 1023.9 hPa West 12.9 km/h 20.9 km/h 87 % 0 mm 0 W/m2
01:16 10.1 °C 8.1 °C 1023.6 hPa West 11.3 km/h 29 km/h 87 % 0 mm 0 W/m2
01:17 10.1 °C 8.1 °C 1023.6 hPa West 9.7 km/h 19.3 km/h 87 % 0 mm 0 W/m2
01:23 10 °C 7.9 °C 1023.6 hPa West 17.7 km/h 37 km/h 87 % 0 mm 0 W/m2
01:26 10.1 °C 8.2 °C 1023.2 hPa West 16.1 km/h 29 km/h 88 % 0 mm 0 W/m2
01:29 10.1 °C 8.2 °C 1023.2 hPa West 17.7 km/h 40.2 km/h 88 % 0 mm 0 W/m2
01:34 10.1 °C 8.1 °C 1023.2 hPa West 20.9 km/h 33.8 km/h 87 % 0 mm 0 W/m2
01:35 10.1 °C 8.1 °C 1023.2 hPa West 22.5 km/h 33.8 km/h 87 % 0 mm 0 W/m2
01:40 10.2 °C 8.1 °C 1023.2 hPa West 17.7 km/h 29 km/h 87 % 0 mm 0 W/m2
01:41 10.2 °C 8.1 °C 1023.2 hPa West 19.3 km/h 29 km/h 87 % 0 mm 0 W/m2
01:46 10.1 °C 8.1 °C 1023.2 hPa West 17.7 km/h 35.4 km/h 87 % 0 mm 0 W/m2
01:47 10.1 °C 8.1 °C 1023.2 hPa West 17.7 km/h 35.4 km/h 87 % 0 mm 0 W/m2
01:52 10.1 °C 8.1 °C 1022.9 hPa West 14.5 km/h 22.5 km/h 87 % 0 mm 0 W/m2
01:57 10.1 °C 8.1 °C 1022.9 hPa West 19.3 km/h 24.1 km/h 87 % 0 mm 0 W/m2
01:58 10.1 °C 8.1 °C 1022.9 hPa West 17.7 km/h 24.1 km/h 87 % 0 mm 0 W/m2
02:03 10.1 °C 8.1 °C 1022.9 hPa West 17.7 km/h 25.7 km/h 87 % 0 mm 0 W/m2
02:08 10.1 °C 8.1 °C 1022.9 hPa West 14.5 km/h 20.9 km/h 87 % 0 mm 0 W/m2
02:10 10.1 °C 8.1 °C 1022.9 hPa West 14.5 km/h 24.1 km/h 87 % 0 mm 0 W/m2
02:15 10.1 °C 8.1 °C 1022.9 hPa West 17.7 km/h 37 km/h 87 % 0 mm 0 W/m2
02:16 10.1 °C 8.1 °C 1022.9 hPa West 19.3 km/h 37 km/h 87 % 0 mm 0 W/m2
02:17 10.1 °C 8.1 °C 1022.9 hPa West 17.7 km/h 37 km/h 87 % 0 mm 0 W/m2
02:22 10.1 °C 8.1 °C 1022.9 hPa West 17.7 km/h 30.6 km/h 87 % 0 mm 0 W/m2
02:26 10.2 °C 8.1 °C 1022.6 hPa WSW 19.3 km/h 30.6 km/h 87 % 0 mm 0 W/m2
02:28 10.2 °C 8.1 °C 1022.6 hPa WSW 22.5 km/h 37 km/h 87 % 0 mm 0 W/m2
02:30 10.3 °C 8.2 °C 1022.6 hPa WSW 19.3 km/h 35.4 km/h 87 % 0 mm 0 W/m2
02:35 10.3 °C 8.2 °C 1022.6 hPa West 20.9 km/h 37 km/h 87 % 0 mm 0 W/m2
02:36 10.3 °C 8.2 °C 1022.6 hPa West 20.9 km/h 37 km/h 87 % 0 mm 0 W/m2
02:38 10.3 °C 8.2 °C 1022.6 hPa West 22.5 km/h 35.4 km/h 87 % 0 mm 0 W/m2
02:42 10.3 °C 8.2 °C 1022.6 hPa WSW 22.5 km/h 35.4 km/h 87 % 0 mm 0 W/m2
02:44 10.3 °C 8.2 °C 1022.6 hPa WSW 22.5 km/h 35.4 km/h 87 % 0 mm 0 W/m2
02:49 10.4 °C 8.3 °C 1022.6 hPa WSW 25.7 km/h 35.4 km/h 87 % 0 mm 0 W/m2
02:50 10.4 °C 8.3 °C 1022.6 hPa WSW 27.4 km/h 40.2 km/h 87 % 0 mm 0 W/m2
02:55 10.4 °C 8.3 °C 1022.2 hPa WSW 20.9 km/h 40.2 km/h 87 % 0 mm 0 W/m2
03:01 10.3 °C 8.2 °C 1022.2 hPa WSW 24.1 km/h 38.6 km/h 87 % 0 mm 0 W/m2
03:04 10.3 °C 8.2 °C 1022.2 hPa WSW 22.5 km/h 35.4 km/h 87 % 0 mm 0 W/m2
03:06 10.3 °C 8.2 °C 1022.2 hPa West 22.5 km/h 35.4 km/h 87 % 0 mm 0 W/m2
03:11 10.3 °C 8.2 °C 1022.2 hPa West 24.1 km/h 33.8 km/h 87 % 0 mm 0 W/m2
03:16 10.3 °C 8.4 °C 1022.2 hPa WSW 29 km/h 45.1 km/h 88 % 0 mm 0 W/m2
03:17 10.3 °C 8.4 °C 1022.2 hPa WSW 25.7 km/h 41.8 km/h 88 % 0 mm 0 W/m2
03:22 10.3 °C 8.4 °C 1021.9 hPa WSW 19.3 km/h 25.7 km/h 88 % 0 mm 0 W/m2
03:27 10.3 °C 8.4 °C 1021.9 hPa WSW 24.1 km/h 35.4 km/h 88 % 0 mm 0 W/m2
03:28 10.3 °C 8.4 °C 1021.9 hPa West 22.5 km/h 33.8 km/h 88 % 0 mm 0 W/m2
03:29 10.3 °C 8.4 °C 1021.9 hPa WSW 22.5 km/h 33.8 km/h 88 % 0 mm 0 W/m2
03:33 10.3 °C 8.4 °C 1021.9 hPa West 22.5 km/h 35.4 km/h 88 % 0 mm 0 W/m2
03:38 10.3 °C 8.4 °C 1021.9 hPa WSW 22.5 km/h 33.8 km/h 88 % 0 mm 0 W/m2
03:43 10.3 °C 8.4 °C 1021.9 hPa WSW 25.7 km/h 33.8 km/h 88 % 0 mm 0 W/m2
03:48 10.4 °C 8.5 °C 1021.9 hPa WSW 20.9 km/h 38.6 km/h 88 % 0 mm 0 W/m2
03:49 10.3 °C 8.4 °C 1021.9 hPa WSW 24.1 km/h 40.2 km/h 88 % 0 mm 0 W/m2
03:54 10.4 °C 8.5 °C 1021.9 hPa WSW 22.5 km/h 35.4 km/h 88 % 0 mm 0 W/m2
03:59 10.4 °C 8.5 °C 1021.6 hPa West 20.9 km/h 33.8 km/h 88 % 0 mm 0 W/m2
04:04 10.4 °C 8.5 °C 1021.6 hPa WSW 24.1 km/h 35.4 km/h 88 % 0 mm 0 W/m2
04:05 10.4 °C 8.5 °C 1021.6 hPa WSW 20.9 km/h 32.2 km/h 88 % 0 mm 0 W/m2
04:10 10.5 °C 8.6 °C 1021.6 hPa WSW 17.7 km/h 25.7 km/h 88 % 0 mm 0 W/m2
04:15 10.5 °C 8.6 °C 1021.6 hPa WSW 17.7 km/h 25.7 km/h 88 % 0 mm 0 W/m2
04:18 10.6 °C 8.7 °C 1021.6 hPa WSW 16.1 km/h 24.1 km/h 88 % 0 mm 0 W/m2
04:23 10.6 °C 8.7 °C 1021.6 hPa WSW 16.1 km/h 25.7 km/h 88 % 0 mm 0 W/m2
04:28 10.7 °C 8.6 °C 1021.6 hPa WSW 17.7 km/h 22.5 km/h 87 % 0 mm 0 W/m2
04:30 10.7 °C 8.6 °C 1021.6 hPa WSW 14.5 km/h 19.3 km/h 87 % 0 mm 0 W/m2
04:35 10.7 °C 8.6 °C 1021.6 hPa WSW 16.1 km/h 20.9 km/h 87 % 0 mm 0 W/m2
04:41 10.7 °C 8.4 °C 1021.6 hPa WSW 8 km/h 19.3 km/h 86 % 0 mm 0 W/m2
04:46 10.7 °C 8.4 °C 1021.2 hPa WSW 11.3 km/h 20.9 km/h 86 % 0 mm 0 W/m2
04:48 10.7 °C 8.4 °C 1021.2 hPa WSW 11.3 km/h 16.1 km/h 86 % 0 mm 0 W/m2
04:53 10.8 °C 8.6 °C 1021.2 hPa WSW 16.1 km/h 32.2 km/h 86 % 0 mm 0 W/m2
04:54 10.8 °C 8.6 °C 1021.2 hPa WSW 17.7 km/h 32.2 km/h 86 % 0 mm 0 W/m2
04:59 11 °C 8.6 °C 1021.2 hPa WSW 14.5 km/h 22.5 km/h 85 % 0 mm 0 W/m2
05:04 11 °C 8.4 °C 1021.2 hPa WSW 19.3 km/h 25.7 km/h 84 % 0 mm 0 W/m2
05:06 11.1 °C 8.5 °C 1021.2 hPa WSW 16.1 km/h 22.5 km/h 84 % 0 mm 0 W/m2
05:11 11 °C 8.4 °C 1021.2 hPa WSW 20.9 km/h 32.2 km/h 84 % 0 mm 0 W/m2
05:16 11 °C 8.4 °C 1021.2 hPa WSW 12.9 km/h 19.3 km/h 84 % 0 mm 0 W/m2
05:21 11 °C 8.4 °C 1021.2 hPa WSW 11.3 km/h 20.9 km/h 84 % 0 mm 0 W/m2
05:23 11 °C 8.4 °C 1021.2 hPa WSW 11.3 km/h 19.3 km/h 84 % 0 mm 0 W/m2
05:26 10.9 °C 8.3 °C 1021.2 hPa West 12.9 km/h 22.5 km/h 84 % 0 mm 0 W/m2
05:29 10.9 °C 8.3 °C 1021.2 hPa West 8 km/h 17.7 km/h 84 % 0 mm 0 W/m2
05:31 10.9 °C 8.3 °C 1021.2 hPa WSW 6.4 km/h 17.7 km/h 84 % 0 mm 0 W/m2
05:36 10.9 °C 8.1 °C 1021.2 hPa SW 3.2 km/h 11.3 km/h 83 % 0 mm 0 W/m2
05:37 10.9 °C 8.1 °C 1021.2 hPa South 4.8 km/h 16.1 km/h 83 % 0 mm 0 W/m2
05:42 10.9 °C 8.1 °C 1020.9 hPa SW 4.8 km/h 12.9 km/h 83 % 0 mm 0 W/m2
05:43 10.9 °C 8.1 °C 1020.9 hPa SW 1.6 km/h 9.7 km/h 83 % 0 mm 0 W/m2
05:48 10.8 °C 8 °C 1020.9 hPa SW 4.8 km/h 8 km/h 83 % 0 mm 0 W/m2
05:53 10.7 °C 7.9 °C 1020.9 hPa SSE 1.6 km/h 6.4 km/h 83 % 0 mm 0 W/m2
05:55 10.7 °C 7.9 °C 1020.9 hPa SSE 1.6 km/h 3.2 km/h 83 % 0 mm 0 W/m2
06:00 10.6 °C 8 °C 1020.9 hPa WSW 11.3 km/h 24.1 km/h 84 % 0 mm 0 W/m2
06:02 10.6 °C 8 °C 1020.9 hPa WSW 8 km/h 24.1 km/h 84 % 0 mm 0 W/m2
06:03 10.6 °C 8 °C 1020.9 hPa SW 3.2 km/h 9.7 km/h 84 % 0 mm 0 W/m2
06:08 10.5 °C 7.9 °C 1020.5 hPa West 11.3 km/h 22.5 km/h 84 % 0 mm 0 W/m2
06:12 10.5 °C 7.9 °C 1020.5 hPa West 8 km/h 19.3 km/h 84 % 0 mm 0 W/m2
06:17 10.5 °C 7.9 °C 1020.5 hPa WSW 12.9 km/h 20.9 km/h 84 % 0 mm 0 W/m2
06:19 10.5 °C 7.9 °C 1020.5 hPa WSW 12.9 km/h 20.9 km/h 84 % 0 mm 0 W/m2
06:22 10.5 °C 7.9 °C 1020.5 hPa SSW 17.7 km/h 30.6 km/h 84 % 0 mm 0 W/m2
06:27 10.5 °C 7.9 °C 1020.2 hPa WSW 19.3 km/h 33.8 km/h 84 % 0 mm 0 W/m2
06:28 10.6 °C 8 °C 1020.5 hPa WSW 16.1 km/h 33.8 km/h 84 % 0 mm 0 W/m2
06:33 10.5 °C 7.9 °C 1020.5 hPa SW 11.3 km/h 22.5 km/h 84 % 0 mm 0 W/m2
06:36 10.5 °C 7.9 °C 1020.2 hPa SW 12.9 km/h 25.7 km/h 84 % 0 mm 0 W/m2
06:41 10.5 °C 7.9 °C 1020.2 hPa SW 11.3 km/h 20.9 km/h 84 % 0 mm 0 W/m2
06:42 10.5 °C 7.9 °C 1020.2 hPa WSW 12.9 km/h 29 km/h 84 % 0 mm 0 W/m2
06:47 10.5 °C 7.9 °C 1020.2 hPa WSW 8 km/h 16.1 km/h 84 % 0 mm 0 W/m2
06:48 10.5 °C 7.9 °C 1020.2 hPa WSW 4.8 km/h 11.3 km/h 84 % 0 mm 0 W/m2
06:49 10.5 °C 7.9 °C 1020.2 hPa WSW 8 km/h 24.1 km/h 84 % 0 mm 0 W/m2
06:54 10.5 °C 7.9 °C 1020.2 hPa WSW 16.1 km/h 29 km/h 84 % 0 mm 0 W/m2
06:55 10.4 °C 7.8 °C 1020.2 hPa WSW 16.1 km/h 29 km/h 84 % 0 mm 0 W/m2
07:00 10.4 °C 7.8 °C 1019.9 hPa SW 14.5 km/h 24.1 km/h 84 % 0 mm 0 W/m2
07:01 10.4 °C 7.8 °C 1019.9 hPa WSW 14.5 km/h 25.7 km/h 84 % 0 mm 0 W/m2
07:06 10.4 °C 7.8 °C 1019.9 hPa WSW 9.7 km/h 20.9 km/h 84 % 0 mm 0 W/m2
07:11 10.4 °C 8 °C 1019.9 hPa WSW 12.9 km/h 24.1 km/h 85 % 0 mm 0 W/m2
07:12 10.4 °C 8 °C 1019.9 hPa WSW 12.9 km/h 24.1 km/h 85 % 0 mm 0 W/m2
07:17 10.4 °C 8 °C 1019.5 hPa SW 14.5 km/h 32.2 km/h 85 % 0 mm 0 W/m2
07:19 10.4 °C 8 °C 1019.5 hPa SW 17.7 km/h 32.2 km/h 85 % 0 mm 0 W/m2
07:24 10.4 °C 8 °C 1019.5 hPa SW 12.9 km/h 20.9 km/h 85 % 0 mm 0 W/m2
07:27 10.4 °C 8 °C 1019.5 hPa WSW 12.9 km/h 19.3 km/h 85 % 0 mm 0 W/m2
07:29 10.4 °C 8 °C 1019.5 hPa WSW 11.3 km/h 20.9 km/h 85 % 0 mm 0 W/m2
07:32 10.4 °C 8 °C 1019.5 hPa WSW 9.7 km/h 14.5 km/h 85 % 0 mm 0 W/m2
07:37 10.4 °C 8 °C 1019.5 hPa WSW 14.5 km/h 30.6 km/h 85 % 0 mm 0 W/m2
07:38 10.4 °C 8 °C 1019.5 hPa WSW 12.9 km/h 24.1 km/h 85 % 0 mm 0 W/m2
07:39 10.4 °C 8 °C 1019.5 hPa SW 9.7 km/h 16.1 km/h 85 % 0 mm 0 W/m2
07:44 10.4 °C 8 °C 1019.2 hPa SW 8 km/h 17.7 km/h 85 % 0 mm 0 W/m2
07:49 10.4 °C 8 °C 1019.2 hPa SSW 8 km/h 19.3 km/h 85 % 0 mm 0 W/m2
07:52 10.4 °C 8 °C 1019.2 hPa WSW 14.5 km/h 22.5 km/h 85 % 0 mm 0 W/m2
07:58 10.4 °C 8 °C 1019.2 hPa WSW 4.8 km/h 14.5 km/h 85 % 0 mm 0 W/m2
08:00 10.4 °C 8 °C 1019.2 hPa WSW 8 km/h 14.5 km/h 85 % 0 mm 0 W/m2
08:01 10.4 °C 8 °C 1019.2 hPa WSW 8 km/h 14.5 km/h 85 % 0 mm 0 W/m2
08:06 10.4 °C 8.2 °C 1019.2 hPa SW 8 km/h 20.9 km/h 86 % 0 mm 0 W/m2
08:07 10.4 °C 8.2 °C 1019.2 hPa SW 9.7 km/h 25.7 km/h 86 % 0 mm 0 W/m2
08:12 10.5 °C 8.3 °C 1019.2 hPa SW 9.7 km/h 16.1 km/h 86 % 0 mm 0 W/m2
08:14 10.5 °C 8.3 °C 1019.2 hPa WSW 9.7 km/h 16.1 km/h 86 % 0 mm 5 W/m2
08:18 10.5 °C 8.3 °C 1019.2 hPa WSW 8 km/h 17.7 km/h 86 % 0 mm 5 W/m2
08:23 10.5 °C 8.3 °C 1019.2 hPa WSW 14.5 km/h 29 km/h 86 % 0 mm 7 W/m2
08:28 10.6 °C 8.3 °C 1018.8 hPa WSW 14.5 km/h 22.5 km/h 86 % 0 mm 11 W/m2
08:33 10.6 °C 8.3 °C 1018.8 hPa WSW 16.1 km/h 25.7 km/h 86 % 0 mm 14 W/m2
08:37 10.7 °C 8.4 °C 1018.8 hPa WSW 19.3 km/h 37 km/h 86 % 0 mm 16 W/m2
08:40 10.7 °C 8.4 °C 1018.8 hPa WSW 14.5 km/h 20.9 km/h 86 % 0 mm 16 W/m2
08:42 10.7 °C 8.4 °C 1018.8 hPa WSW 20.9 km/h 35.4 km/h 86 % 0 mm 19 W/m2
08:48 10.8 °C 8.6 °C 1018.5 hPa WSW 22.5 km/h 40.2 km/h 86 % 0 mm 21 W/m2
08:53 10.8 °C 8.6 °C 1018.5 hPa WSW 17.7 km/h 32.2 km/h 86 % 0 mm 25 W/m2
08:58 10.8 °C 8.6 °C 1018.5 hPa WSW 20.9 km/h 33.8 km/h 86 % 0 mm 30 W/m2
09:04 10.8 °C 8.6 °C 1018.5 hPa WSW 24.1 km/h 32.2 km/h 86 % 0 mm 37 W/m2
09:05 10.8 °C 8.6 °C 1018.5 hPa WSW 24.1 km/h 37 km/h 86 % 0 mm 39 W/m2
09:10 10.9 °C 8.7 °C 1018.5 hPa WSW 19.3 km/h 37 km/h 86 % 0 mm 39 W/m2
09:15 10.9 °C 8.7 °C 1018.2 hPa WSW 14.5 km/h 22.5 km/h 86 % 0 mm 39 W/m2
09:16 10.9 °C 8.8 °C 1018.2 hPa WSW 24.1 km/h 40.2 km/h 87 % 0 mm 39 W/m2
09:20 11 °C 8.9 °C 1018.2 hPa WSW 19.3 km/h 30.6 km/h 87 % 0 mm 40 W/m2
09:25 11.1 °C 8.8 °C 1018.2 hPa WSW 17.7 km/h 29 km/h 86 % 0 mm 44 W/m2
09:26 11.1 °C 8.8 °C 1018.2 hPa WSW 20.9 km/h 40.2 km/h 86 % 0 mm 46 W/m2
09:31 11.2 °C 8.9 °C 1017.8 hPa WSW 25.7 km/h 40.2 km/h 86 % 0 mm 46 W/m2
09:33 11.2 °C 8.9 °C 1018.2 hPa WSW 19.3 km/h 35.4 km/h 86 % 0 mm 51 W/m2
09:38 11.3 °C 9.1 °C 1017.8 hPa WSW 16.1 km/h 33.8 km/h 86 % 0 mm 47 W/m2
09:39 11.3 °C 9.1 °C 1017.8 hPa WSW 14.5 km/h 24.1 km/h 86 % 0 mm 47 W/m2
09:44 11.3 °C 9.1 °C 1018.2 hPa WSW 22.5 km/h 35.4 km/h 86 % 0 mm 47 W/m2
09:49 11.3 °C 9.1 °C 1017.8 hPa WSW 17.7 km/h 35.4 km/h 86 % 0 mm 49 W/m2
09:51 11.3 °C 9.1 °C 1017.8 hPa WSW 24.1 km/h 41.8 km/h 86 % 0 mm 58 W/m2
09:54 11.4 °C 9.2 °C 1017.8 hPa WSW 29 km/h 41.8 km/h 86 % 0 mm 49 W/m2
09:57 11.5 °C 9.1 °C 1017.5 hPa West 22.5 km/h 35.4 km/h 85 % 0 mm 53 W/m2
10:02 11.6 °C 9.2 °C 1017.5 hPa West 20.9 km/h 32.2 km/h 85 % 0 mm 56 W/m2
10:03 11.6 °C 9.2 °C 1017.8 hPa WSW 22.5 km/h 35.4 km/h 85 % 0 mm 58 W/m2
10:08 11.7 °C 9.1 °C 1017.5 hPa WSW 25.7 km/h 49.9 km/h 84 % 0 mm 56 W/m2
10:09 11.8 °C 9.2 °C 1017.5 hPa WSW 24.1 km/h 46.7 km/h 84 % 0 mm 56 W/m2
10:14 11.8 °C 9.2 °C 1017.5 hPa West 25.7 km/h 45.1 km/h 84 % 0 mm 69 W/m2
10:19 11.9 °C 9.3 °C 1017.2 hPa West 27.4 km/h 49.9 km/h 84 % 0 mm 86 W/m2
10:20 11.9 °C 9.3 °C 1017.5 hPa West 29 km/h 49.9 km/h 84 % 0 mm 91 W/m2
10:24 12.1 °C 9.3 °C 1017.5 hPa West 33.8 km/h 53.1 km/h 83 % 0 mm 65 W/m2
10:27 12.2 °C 9.4 °C 1017.2 hPa West 27.4 km/h 43.5 km/h 83 % 0 mm 67 W/m2
10:32 12.2 °C 9.4 °C 1017.2 hPa WSW 32.2 km/h 53.1 km/h 83 % 0 mm 74 W/m2
10:34 12.2 °C 9.2 °C 1017.2 hPa WSW 29 km/h 53.1 km/h 82 % 0 mm 74 W/m2
10:37 12.3 °C 9.3 °C 1017.2 hPa WSW 27.4 km/h 46.7 km/h 82 % 0 mm 79 W/m2
10:39 12.3 °C 9.3 °C 1017.2 hPa WSW 35.4 km/h 57.9 km/h 82 % 0 mm 81 W/m2
10:44 12.3 °C 9.3 °C 1017.2 hPa West 30.6 km/h 45.1 km/h 82 % 0 mm 102 W/m2
10:46 12.4 °C 9.4 °C 1017.2 hPa WSW 30.6 km/h 45.1 km/h 82 % 0 mm 104 W/m2
10:51 12.4 °C 9.4 °C 1017.2 hPa West 37 km/h 62.8 km/h 82 % 0 mm 81 W/m2
10:53 12.4 °C 9.2 °C 1016.8 hPa West 35.4 km/h 51.5 km/h 81 % 0 mm 79 W/m2
10:57 12.4 °C 9.2 °C 1016.8 hPa WSW 33.8 km/h 62.8 km/h 81 % 0 mm 86 W/m2
11:02 12.4 °C 9.2 °C 1016.8 hPa West 33.8 km/h 49.9 km/h 81 % 0 mm 98 W/m2
11:06 12.5 °C 9.3 °C 1016.5 hPa WSW 33.8 km/h 61.2 km/h 81 % 0 mm 105 W/m2
11:09 12.6 °C 9.4 °C 1016.8 hPa WSW 30.6 km/h 45.1 km/h 81 % 0 mm 111 W/m2
11:13 12.6 °C 9.4 °C 1016.5 hPa WSW 35.4 km/h 48.3 km/h 81 % 0 mm 116 W/m2
11:15 12.6 °C 9.2 °C 1016.8 hPa WSW 32.2 km/h 48.3 km/h 80 % 0 mm 123 W/m2
11:21 12.6 °C 9.2 °C 1016.5 hPa WSW 35.4 km/h 49.9 km/h 80 % 0 mm 153 W/m2
11:25 12.8 °C 9.4 °C 1016.5 hPa WSW 32.2 km/h 46.7 km/h 80 % 0 mm 276 W/m2
11:26 12.8 °C 9.4 °C 1016.5 hPa WSW 30.6 km/h 46.7 km/h 80 % 0 mm 327 W/m2
11:31 13 °C 9.4 °C 1016.1 hPa WSW 37 km/h 53.1 km/h 79 % 0 mm 192 W/m2
11:33 13.1 °C 9.6 °C 1016.5 hPa WSW 32.2 km/h 49.9 km/h 79 % 0 mm 264 W/m2
11:38 13.2 °C 9.4 °C 1016.5 hPa WSW 35.4 km/h 48.3 km/h 78 % 0 mm 267 W/m2
11:41 13.2 °C 9.4 °C 1016.1 hPa WSW 32.2 km/h 48.3 km/h 78 % 0 mm 178 W/m2
11:42 13.2 °C 9.4 °C 1016.1 hPa WSW 30.6 km/h 48.3 km/h 78 % 0 mm 178 W/m2
11:47 13.1 °C 9.3 °C 1016.5 hPa WSW 38.6 km/h 56.3 km/h 78 % 0 mm 137 W/m2
11:48 13.1 °C 9.3 °C 1016.5 hPa WSW 40.2 km/h 56.3 km/h 78 % 0 mm 156 W/m2
11:52 13 °C 9.3 °C 1016.1 hPa WSW 33.8 km/h 54.7 km/h 78 % 0 mm 155 W/m2
11:55 13 °C 9.3 °C 1016.5 hPa WSW 32.2 km/h 48.3 km/h 78 % 0 mm 125 W/m2
12:00 13 °C 9.3 °C 1016.5 hPa WSW 35.4 km/h 49.9 km/h 78 % 0 mm 195 W/m2
12:02 13 °C 9.3 °C 1016.5 hPa WSW 32.2 km/h 48.3 km/h 78 % 0 mm 144 W/m2
12:07 12.9 °C 8.9 °C 1016.5 hPa WSW 33.8 km/h 66 km/h 77 % 0 mm 116 W/m2
12:12 12.8 °C 9.1 °C 1016.1 hPa WSW 35.4 km/h 61.2 km/h 78 % 0 mm 104 W/m2
12:14 12.8 °C 8.9 °C 1016.1 hPa WSW 43.5 km/h 61.2 km/h 77 % 0 mm 109 W/m2
12:15 12.8 °C 9.1 °C 1016.1 hPa WSW 37 km/h 56.3 km/h 78 % 0 mm 109 W/m2
12:20 12.7 °C 8.9 °C 1016.1 hPa WSW 40.2 km/h 57.9 km/h 78 % 0 mm 100 W/m2
12:25 12.6 °C 9.1 °C 1016.1 hPa WSW 35.4 km/h 49.9 km/h 79 % 0 mm 88 W/m2
12:27 12.6 °C 9.1 °C 1016.1 hPa WSW 35.4 km/h 49.9 km/h 79 % 0 mm 100 W/m2
12:32 12.6 °C 9.1 °C 1016.1 hPa WSW 27.4 km/h 37 km/h 79 % 0 mm 102 W/m2
12:33 12.6 °C 9.1 °C 1016.1 hPa WSW 27.4 km/h 43.5 km/h 79 % 0 mm 100 W/m2
12:38 12.6 °C 9.2 °C 1016.1 hPa WSW 27.4 km/h 40.2 km/h 80 % 0 mm 79 W/m2
12:43 12.4 °C 9.1 °C 1016.1 hPa SW 30.6 km/h 41.8 km/h 80 % 0 mm 72 W/m2
12:45 12.4 °C 9.1 °C 1016.1 hPa WSW 25.7 km/h 35.4 km/h 80 % 0 mm 91 W/m2
12:50 12.3 °C 9.1 °C 1016.1 hPa WSW 27.4 km/h 40.2 km/h 81 % 0 mm 72 W/m2
12:51 12.3 °C 9.1 °C 1016.1 hPa WSW 29 km/h 40.2 km/h 81 % 0 mm 70 W/m2
12:56 12.3 °C 9.1 °C 1016.1 hPa SW 29 km/h 38.6 km/h 81 % 0 mm 93 W/m2
13:01 12.2 °C 9.1 °C 1016.1 hPa WSW 25.7 km/h 41.8 km/h 81 % 0 mm 65 W/m2
13:03 12.2 °C 9.1 °C 1015.8 hPa WSW 29 km/h 45.1 km/h 81 % 0 mm 74 W/m2
13:07 12.2 °C 9.1 °C 1015.8 hPa SW 29 km/h 51.5 km/h 81 % 0 mm 74 W/m2
13:10 12.2 °C 9.1 °C 1015.8 hPa SW 32.2 km/h 59.5 km/h 81 % 0 mm 77 W/m2
13:15 12.1 °C 8.9 °C 1015.8 hPa WSW 20.9 km/h 38.6 km/h 81 % 0 mm 70 W/m2
13:17 12.1 °C 8.9 °C 1015.8 hPa WSW 25.7 km/h 38.6 km/h 81 % 0 mm 65 W/m2
13:18 12.1 °C 8.9 °C 1015.8 hPa WSW 24.1 km/h 40.2 km/h 81 % 0 mm 67 W/m2
13:23 12.1 °C 8.8 °C 1015.5 hPa WSW 30.6 km/h 46.7 km/h 80 % 0 mm 58 W/m2
13:24 12.1 °C 8.8 °C 1015.5 hPa WSW 30.6 km/h 46.7 km/h 80 % 0 mm 58 W/m2
13:25 12.1 °C 8.8 °C 1015.5 hPa WSW 30.6 km/h 51.5 km/h 80 % 0 mm 58 W/m2
13:30 12.1 °C 8.8 °C 1015.5 hPa WSW 29 km/h 46.7 km/h 80 % 0 mm 44 W/m2
13:35 12.1 °C 8.6 °C 1015.5 hPa WSW 32.2 km/h 49.9 km/h 79 % 0 mm 40 W/m2
13:36 12.1 °C 8.8 °C 1015.5 hPa WSW 29 km/h 41.8 km/h 80 % 0 mm 37 W/m2
13:41 12 °C 8.7 °C 1015.5 hPa WSW 32.2 km/h 45.1 km/h 80 % 0 mm 33 W/m2
13:44 11.9 °C 8.6 °C 1015.5 hPa WSW 29 km/h 45.1 km/h 80 % 0 mm 37 W/m2
13:49 11.9 °C 8.6 °C 1015.1 hPa WSW 35.4 km/h 53.1 km/h 80 % 0 mm 49 W/m2
13:54 11.8 °C 8.4 °C 1015.1 hPa WSW 27.4 km/h 46.7 km/h 80 % 0 mm 46 W/m2
13:58 11.8 °C 8.4 °C 1015.1 hPa WSW 25.7 km/h 41.8 km/h 80 % 0 mm 53 W/m2
14:02 11.8 °C 8.4 °C 1015.1 hPa WSW 27.4 km/h 40.2 km/h 80 % 0 mm 53 W/m2
14:06 11.8 °C 8.4 °C 1015.1 hPa WSW 30.6 km/h 45.1 km/h 80 % 0 mm 53 W/m2
14:11 11.8 °C 8.4 °C 1015.1 hPa WSW 32.2 km/h 49.9 km/h 80 % 0 mm 46 W/m2
14:12 11.8 °C 8.4 °C 1015.1 hPa WSW 29 km/h 46.7 km/h 80 % 0 mm 44 W/m2
14:17 11.8 °C 8.4 °C 1015.1 hPa WSW 35.4 km/h 46.7 km/h 80 % 0 mm 37 W/m2
14:22 11.7 °C 8.6 °C 1015.1 hPa WSW 27.4 km/h 40.2 km/h 81 % 0 mm 46 W/m2
14:23 11.7 °C 8.6 °C 1015.1 hPa WSW 27.4 km/h 40.2 km/h 81 % 0 mm 47 W/m2
14:28 11.7 °C 8.6 °C 1015.1 hPa WSW 27.4 km/h 45.1 km/h 81 % 0 mm 49 W/m2
14:30 11.7 °C 8.6 °C 1015.1 hPa WSW 24.1 km/h 38.6 km/h 81 % 0 mm 47 W/m2
14:35 11.6 °C 8.4 °C 1015.1 hPa WSW 24.1 km/h 43.5 km/h 81 % 0 mm 44 W/m2
14:36 11.6 °C 8.4 °C 1015.1 hPa WSW 25.7 km/h 46.7 km/h 81 % 0 mm 42 W/m2
14:37 11.6 °C 8.4 °C 1015.1 hPa WSW 27.4 km/h 46.7 km/h 81 % 0 mm 40 W/m2
14:42 11.6 °C 8.4 °C 1015.1 hPa WSW 30.6 km/h 51.5 km/h 81 % 0 mm 44 W/m2
14:45 11.6 °C 8.4 °C 1015.1 hPa WSW 22.5 km/h 40.2 km/h 81 % 0 mm 42 W/m2
14:50 11.5 °C 8.2 °C 1014.8 hPa WSW 27.4 km/h 43.5 km/h 80 % 0 mm 37 W/m2
14:52 11.5 °C 8.3 °C 1014.8 hPa WSW 25.7 km/h 41.8 km/h 81 % 0 mm 35 W/m2
14:57 11.4 °C 8.3 °C 1014.8 hPa WSW 24.1 km/h 43.5 km/h 81 % 0 mm 32 W/m2
14:58 11.4 °C 8.3 °C 1014.8 hPa WSW 24.1 km/h 43.5 km/h 81 % 0 mm 32 W/m2
15:03 11.4 °C 8.3 °C 1014.8 hPa SW 22.5 km/h 33.8 km/h 81 % 0 mm 28 W/m2
15:08 11.3 °C 8.2 °C 1014.8 hPa WSW 20.9 km/h 32.2 km/h 81 % 0 mm 25 W/m2
15:10 11.3 °C 8.2 °C 1014.8 hPa WSW 19.3 km/h 32.2 km/h 81 % 0 mm 23 W/m2
15:15 11.2 °C 8.2 °C 1014.8 hPa WSW 17.7 km/h 33.8 km/h 82 % 0 mm 21 W/m2
15:17 11.2 °C 8.2 °C 1014.8 hPa WSW 16.1 km/h 33.8 km/h 82 % 0 mm 21 W/m2
15:18 11.2 °C 8.2 °C 1014.8 hPa WSW 14.5 km/h 22.5 km/h 82 % 0 mm 21 W/m2
15:23 11.2 °C 8.2 °C 1014.8 hPa WSW 20.9 km/h 41.8 km/h 82 % 0 mm 18 W/m2
15:27 11.2 °C 8.2 °C 1014.4 hPa WSW 22.5 km/h 37 km/h 82 % 0 mm 16 W/m2
15:29 11.2 °C 8.2 °C 1014.8 hPa WSW 27.4 km/h 45.1 km/h 82 % 0 mm 14 W/m2
15:33 11.2 °C 8.2 °C 1014.8 hPa WSW 24.1 km/h 43.5 km/h 82 % 0 mm 11 W/m2
15:38 11.2 °C 8.2 °C 1014.4 hPa WSW 25.7 km/h 40.2 km/h 82 % 0 mm 7 W/m2
15:39 11.2 °C 8.2 °C 1014.4 hPa WSW 25.7 km/h 40.2 km/h 82 % 0 mm 7 W/m2
15:44 11.1 °C 8.2 °C 1014.4 hPa WSW 22.5 km/h 38.6 km/h 82 % 0 mm 5 W/m2
15:47 11.1 °C 8.2 °C 1014.4 hPa WSW 24.1 km/h 48.3 km/h 82 % 0 mm 0 W/m2
15:49 11.1 °C 8.2 °C 1014.4 hPa SW 17.7 km/h 30.6 km/h 82 % 0 mm 0 W/m2
15:54 11.1 °C 8.2 °C 1014.4 hPa WSW 24.1 km/h 40.2 km/h 82 % 0 mm 0 W/m2
15:57 11.1 °C 8.2 °C 1014.4 hPa WSW 22.5 km/h 38.6 km/h 82 % 0 mm 0 W/m2
16:00 11.1 °C 8.2 °C 1014.4 hPa WSW 20.9 km/h 43.5 km/h 82 % 0 mm 0 W/m2
16:05 11.1 °C 8.2 °C 1014.1 hPa SW 27.4 km/h 40.2 km/h 82 % 0 mm 0 W/m2
16:10 11.1 °C 8.2 °C 1014.1 hPa WSW 25.7 km/h 51.5 km/h 82 % 0 mm 0 W/m2
16:12 11.1 °C 8.2 °C 1014.1 hPa WSW 24.1 km/h 38.6 km/h 82 % 0 mm 0 W/m2
16:13 11.1 °C 8.2 °C 1014.1 hPa WSW 27.4 km/h 40.2 km/h 82 % 0 mm 0 W/m2
16:18 11.1 °C 8.2 °C 1014.1 hPa WSW 25.7 km/h 41.8 km/h 82 % 0 mm 0 W/m2
16:21 11.1 °C 8.2 °C 1014.1 hPa WSW 22.5 km/h 38.6 km/h 82 % 0 mm 0 W/m2
16:26 11.1 °C 8.2 °C 1014.1 hPa WSW 20.9 km/h 38.6 km/h 82 % 0 mm 0 W/m2
16:29 11.1 °C 8.2 °C 1014.1 hPa WSW 22.5 km/h 40.2 km/h 82 % 0 mm 0 W/m2
16:30 11.1 °C 8.2 °C 1014.1 hPa WSW 22.5 km/h 40.2 km/h 82 % 0 mm 0 W/m2
16:35 11.1 °C 8.2 °C 1014.1 hPa WSW 24.1 km/h 45.1 km/h 82 % 0 mm 0 W/m2
16:40 11.1 °C 8.2 °C 1014.1 hPa WSW 27.4 km/h 41.8 km/h 82 % 0 mm 0 W/m2
16:42 11.1 °C 8.2 °C 1014.1 hPa WSW 25.7 km/h 41.8 km/h 82 % 0 mm 0 W/m2
16:45 11.1 °C 8.2 °C 1014.1 hPa West 22.5 km/h 40.2 km/h 82 % 0 mm 0 W/m2
16:48 11.1 °C 8.2 °C 1014.1 hPa WSW 16.1 km/h 30.6 km/h 82 % 0 mm 0 W/m2
16:50 11 °C 8.1 °C 1014.1 hPa WSW 16.1 km/h 37 km/h 82 % 0 mm 0 W/m2
16:54 11 °C 8.1 °C 1013.8 hPa WSW 24.1 km/h 41.8 km/h 82 % 0 mm 0 W/m2
16:59 11 °C 8.1 °C 1014.1 hPa WSW 22.5 km/h 40.2 km/h 82 % 0 mm 0 W/m2
17:00 11 °C 8.1 °C 1013.8 hPa WSW 16.1 km/h 24.1 km/h 82 % 0 mm 0 W/m2
17:05 10.9 °C 7.9 °C 1013.8 hPa WSW 17.7 km/h 33.8 km/h 82 % 0 mm 0 W/m2
17:10 10.9 °C 7.9 °C 1014.1 hPa WSW 27.4 km/h 38.6 km/h 82 % 0 mm 0 W/m2
17:11 11 °C 8.1 °C 1013.8 hPa WSW 27.4 km/h 38.6 km/h 82 % 0 mm 0 W/m2
17:16 11 °C 8.1 °C 1013.8 hPa SW 14.5 km/h 29 km/h 82 % 0 mm 0 W/m2
17:17 11 °C 8.1 °C 1013.8 hPa SW 16.1 km/h 29 km/h 82 % 0 mm 0 W/m2
17:22 10.9 °C 7.9 °C 1013.8 hPa SW 17.7 km/h 33.8 km/h 82 % 0 mm 0 W/m2
17:26 11 °C 8.1 °C 1014.1 hPa WSW 19.3 km/h 32.2 km/h 82 % 0 mm 0 W/m2
17:31 11 °C 8.1 °C 1014.1 hPa SW 12.9 km/h 20.9 km/h 82 % 0 mm 0 W/m2
17:32 11 °C 8.1 °C 1014.1 hPa SW 11.3 km/h 20.9 km/h 82 % 0 mm 0 W/m2
17:37 10.9 °C 7.9 °C 1014.1 hPa SSW 11.3 km/h 17.7 km/h 82 % 0 mm 0 W/m2
17:38 10.9 °C 7.9 °C 1014.1 hPa SW 11.3 km/h 17.7 km/h 82 % 0 mm 0 W/m2
17:42 10.9 °C 7.9 °C 1014.1 hPa SW 12.9 km/h 19.3 km/h 82 % 0 mm 0 W/m2
17:45 10.9 °C 7.9 °C 1014.1 hPa SW 16.1 km/h 24.1 km/h 82 % 0 mm 0 W/m2
17:50 10.9 °C 7.9 °C 1014.1 hPa WSW 24.1 km/h 45.1 km/h 82 % 0 mm 0 W/m2
17:51 10.9 °C 7.9 °C 1013.8 hPa WSW 24.1 km/h 45.1 km/h 82 % 0 mm 0 W/m2
17:54 11 °C 8.1 °C 1013.8 hPa WSW 19.3 km/h 33.8 km/h 82 % 0 mm 0 W/m2
17:56 11 °C 8.1 °C 1013.8 hPa SW 16.1 km/h 24.1 km/h 82 % 0 mm 0 W/m2
18:01 11 °C 8.1 °C 1013.8 hPa SW 14.5 km/h 25.7 km/h 82 % 0 mm 0 W/m2
18:03 10.9 °C 7.9 °C 1013.8 hPa SW 19.3 km/h 35.4 km/h 82 % 0 mm 0 W/m2
18:06 10.9 °C 7.9 °C 1013.8 hPa SW 14.5 km/h 20.9 km/h 82 % 0 mm 0 W/m2
18:10 10.9 °C 7.9 °C 1013.8 hPa WSW 11.3 km/h 16.1 km/h 82 % 0 mm 0 W/m2
18:15 10.9 °C 7.9 °C 1013.8 hPa SW 17.7 km/h 35.4 km/h 82 % 0 mm 0 W/m2
18:16 10.9 °C 7.9 °C 1013.8 hPa SW 17.7 km/h 35.4 km/h 82 % 0 mm 0 W/m2
18:19 10.9 °C 7.9 °C 1013.8 hPa SW 12.9 km/h 32.2 km/h 82 % 0 mm 0 W/m2
18:24 10.9 °C 7.9 °C 1013.4 hPa WSW 19.3 km/h 30.6 km/h 82 % 0 mm 0 W/m2
18:27 10.9 °C 7.9 °C 1013.4 hPa SSW 14.5 km/h 25.7 km/h 82 % 0 mm 0 W/m2
18:28 10.9 °C 7.9 °C 1013.4 hPa SSW 16.1 km/h 25.7 km/h 82 % 0 mm 0 W/m2
18:32 10.9 °C 7.9 °C 1013.4 hPa SW 11.3 km/h 20.9 km/h 82 % 0 mm 0 W/m2
18:36 10.9 °C 7.9 °C 1013.4 hPa SW 11.3 km/h 19.3 km/h 82 % 0 mm 0 W/m2
18:39 10.9 °C 7.9 °C 1013.4 hPa SW 11.3 km/h 19.3 km/h 82 % 0 mm 0 W/m2
18:42 10.9 °C 7.9 °C 1013.4 hPa SW 11.3 km/h 22.5 km/h 82 % 0 mm 0 W/m2
18:47 10.9 °C 7.9 °C 1013.4 hPa SSW 16.1 km/h 25.7 km/h 82 % 0 mm 0 W/m2
18:48 10.9 °C 7.9 °C 1013.4 hPa SW 12.9 km/h 20.9 km/h 82 % 0 mm 0 W/m2
18:49 10.9 °C 7.9 °C 1013.4 hPa WSW 12.9 km/h 17.7 km/h 82 % 0 mm 0 W/m2
18:54 10.8 °C 8 °C 1013.1 hPa SW 16.1 km/h 24.1 km/h 83 % 0 mm 0 W/m2
18:59 10.8 °C 8 °C 1013.1 hPa SW 14.5 km/h 25.7 km/h 83 % 0 mm 0 W/m2
19:00 10.8 °C 8 °C 1013.1 hPa SW 12.9 km/h 19.3 km/h 83 % 0 mm 0 W/m2
19:05 10.8 °C 8 °C 1013.1 hPa SSW 11.3 km/h 22.5 km/h 83 % 0 mm 0 W/m2
19:07 10.8 °C 8 °C 1013.1 hPa SW 12.9 km/h 22.5 km/h 83 % 0 mm 0 W/m2
19:12 10.8 °C 8 °C 1013.1 hPa WSW 17.7 km/h 32.2 km/h 83 % 0 mm 0 W/m2
19:14 10.8 °C 8 °C 1013.1 hPa SW 11.3 km/h 29 km/h 83 % 0 mm 0 W/m2
19:19 10.8 °C 8 °C 1013.1 hPa WSW 4.8 km/h 12.9 km/h 83 % 0 mm 0 W/m2
19:20 10.8 °C 8 °C 1013.1 hPa SW 8 km/h 14.5 km/h 83 % 0 mm 0 W/m2
19:25 10.8 °C 8 °C 1013.1 hPa SSW 9.7 km/h 14.5 km/h 83 % 0 mm 0 W/m2
19:26 10.8 °C 8 °C 1013.1 hPa SSW 9.7 km/h 16.1 km/h 83 % 0 mm 0 W/m2
19:27 10.8 °C 8 °C 1012.8 hPa South 9.7 km/h 16.1 km/h 83 % 0 mm 0 W/m2
19:32 10.7 °C 7.9 °C 1012.8 hPa WSW 11.3 km/h 20.9 km/h 83 % 0 mm 0 W/m2
19:35 10.7 °C 7.9 °C 1012.8 hPa SW 14.5 km/h 24.1 km/h 83 % 0 mm 0 W/m2
19:38 10.7 °C 8.1 °C 1012.8 hPa SW 14.5 km/h 20.9 km/h 84 % 0 mm 0 W/m2
19:43 10.7 °C 8.1 °C 1012.8 hPa SW 14.5 km/h 22.5 km/h 84 % 0 mm 0 W/m2
19:44 10.7 °C 8.1 °C 1012.8 hPa SW 14.5 km/h 22.5 km/h 84 % 0 mm 0 W/m2
19:47 10.7 °C 8.1 °C 1012.8 hPa SW 12.9 km/h 20.9 km/h 84 % 0 mm 0 W/m2
19:52 10.7 °C 8.1 °C 1012.8 hPa SW 14.5 km/h 19.3 km/h 84 % 0 mm 0 W/m2
19:56 10.7 °C 8.1 °C 1012.8 hPa SW 14.5 km/h 24.1 km/h 84 % 0 mm 0 W/m2
19:57 10.7 °C 8.1 °C 1012.4 hPa SW 14.5 km/h 20.9 km/h 84 % 0 mm 0 W/m2
20:02 10.7 °C 8.1 °C 1012.4 hPa SW 12.9 km/h 20.9 km/h 84 % 0 mm 0 W/m2
20:03 10.7 °C 8.1 °C 1012.4 hPa SW 12.9 km/h 20.9 km/h 84 % 0 mm 0 W/m2
20:08 10.7 °C 7.9 °C 1012.4 hPa SW 22.5 km/h 41.8 km/h 83 % 0 mm 0 W/m2
20:12 10.8 °C 8 °C 1012.4 hPa SW 24.1 km/h 35.4 km/h 83 % 0 mm 0 W/m2
20:17 10.8 °C 7.8 °C 1012.4 hPa SW 19.3 km/h 35.4 km/h 82 % 0 mm 0 W/m2
20:19 10.8 °C 7.8 °C 1012.4 hPa SW 19.3 km/h 35.4 km/h 82 % 0 mm 0 W/m2
20:20 10.8 °C 7.8 °C 1012.4 hPa SW 16.1 km/h 22.5 km/h 82 % 0 mm 0 W/m2
20:25 10.7 °C 7.8 °C 1012.4 hPa SW 16.1 km/h 30.6 km/h 82 % 0 mm 0 W/m2
20:26 10.7 °C 7.8 °C 1012.4 hPa SW 16.1 km/h 30.6 km/h 82 % 0 mm 0 W/m2
20:31 10.7 °C 7.8 °C 1012.4 hPa SW 22.5 km/h 35.4 km/h 82 % 0 mm 0 W/m2
20:33 10.7 °C 7.8 °C 1012.4 hPa SW 19.3 km/h 35.4 km/h 82 % 0 mm 0 W/m2
20:38 10.7 °C 7.8 °C 1012.1 hPa SW 16.1 km/h 29 km/h 82 % 0 mm 0 W/m2
20:43 10.7 °C 7.8 °C 1012.1 hPa SSW 14.5 km/h 25.7 km/h 82 % 0 mm 0 W/m2
20:48 10.6 °C 7.7 °C 1012.1 hPa SW 20.9 km/h 40.2 km/h 82 % 0 mm 0 W/m2
20:52 10.6 °C 7.7 °C 1012.1 hPa SW 19.3 km/h 30.6 km/h 82 % 0 mm 0 W/m2
20:54 10.6 °C 7.7 °C 1012.1 hPa SW 20.9 km/h 37 km/h 82 % 0 mm 0 W/m2
20:58 10.6 °C 7.7 °C 1012.1 hPa SW 20.9 km/h 37 km/h 82 % 0 mm 0 W/m2
21:03 10.6 °C 7.7 °C 1011.7 hPa SW 24.1 km/h 38.6 km/h 82 % 0 mm 0 W/m2
21:04 10.6 °C 7.7 °C 1012.1 hPa SW 24.1 km/h 38.6 km/h 82 % 0 mm 0 W/m2
21:09 10.7 °C 7.8 °C 1011.7 hPa SW 22.5 km/h 43.5 km/h 82 % 0 mm 0 W/m2
21:10 10.7 °C 7.8 °C 1011.7 hPa SW 27.4 km/h 43.5 km/h 82 % 0 mm 0 W/m2
21:15 10.7 °C 7.8 °C 1011.7 hPa SW 22.5 km/h 40.2 km/h 82 % 0 mm 0 W/m2
21:18 10.7 °C 7.8 °C 1011.4 hPa SW 19.3 km/h 29 km/h 82 % 0 mm 0 W/m2
21:23 10.6 °C 7.7 °C 1011.4 hPa SW 20.9 km/h 37 km/h 82 % 0 mm 0 W/m2
21:27 10.6 °C 7.7 °C 1011.4 hPa SW 17.7 km/h 29 km/h 82 % 0 mm 0 W/m2
21:32 10.6 °C 7.5 °C 1011.4 hPa SW 22.5 km/h 35.4 km/h 81 % 0 mm 0 W/m2
21:36 10.6 °C 7.5 °C 1011.4 hPa SW 27.4 km/h 40.2 km/h 81 % 0 mm 0 W/m2
21:41 10.6 °C 7.5 °C 1011.4 hPa SW 22.5 km/h 35.4 km/h 81 % 0 mm 0 W/m2
21:46 10.6 °C 7.5 °C 1011.1 hPa SW 17.7 km/h 32.2 km/h 81 % 0 mm 0 W/m2
21:48 10.6 °C 7.5 °C 1011.4 hPa SW 22.5 km/h 37 km/h 81 % 0 mm 0 W/m2
21:53 10.6 °C 7.7 °C 1011.1 hPa WSW 22.5 km/h 33.8 km/h 82 % 0 mm 0 W/m2
21:56 10.6 °C 7.7 °C 1011.1 hPa SW 25.7 km/h 40.2 km/h 82 % 0 mm 0 W/m2
22:01 10.6 °C 7.7 °C 1011.1 hPa SW 17.7 km/h 29 km/h 82 % 0 mm 0 W/m2
22:02 10.6 °C 7.7 °C 1011.1 hPa SW 17.7 km/h 29 km/h 82 % 0 mm 0 W/m2
22:07 10.6 °C 7.7 °C 1011.1 hPa WSW 22.5 km/h 33.8 km/h 82 % 0 mm 0 W/m2
22:08 10.6 °C 7.7 °C 1011.1 hPa WSW 24.1 km/h 38.6 km/h 82 % 0 mm 0 W/m2
22:13 10.6 °C 7.5 °C 1011.1 hPa WSW 25.7 km/h 40.2 km/h 81 % 0 mm 0 W/m2
22:14 10.7 °C 7.6 °C 1011.1 hPa WSW 29 km/h 41.8 km/h 81 % 0 mm 0 W/m2
22:17 10.7 °C 7.6 °C 1011.1 hPa SW 25.7 km/h 46.7 km/h 81 % 0 mm 0 W/m2
22:20 10.8 °C 7.7 °C 1010.7 hPa WSW 30.6 km/h 45.1 km/h 81 % 0 mm 0 W/m2
22:25 10.8 °C 7.5 °C 1010.7 hPa SW 25.7 km/h 51.5 km/h 80 % 0 mm 0 W/m2
22:28 10.8 °C 7.5 °C 1010.7 hPa SW 27.4 km/h 43.5 km/h 80 % 0 mm 0 W/m2
22:33 10.7 °C 7.6 °C 1010.7 hPa SW 30.6 km/h 43.5 km/h 81 % 0 mm 0 W/m2
22:34 10.7 °C 7.6 °C 1010.7 hPa WSW 29 km/h 43.5 km/h 81 % 0 mm 0 W/m2
22:35 10.7 °C 7.6 °C 1010.7 hPa WSW 29 km/h 43.5 km/h 81 % 0 mm 0 W/m2
22:40 10.7 °C 7.4 °C 1010.4 hPa WSW 29 km/h 45.1 km/h 80 % 0 mm 0 W/m2
22:42 10.7 °C 7.4 °C 1010.4 hPa WSW 25.7 km/h 45.1 km/h 80 % 0 mm 0 W/m2
22:47 10.7 °C 7.2 °C 1010.4 hPa SW 24.1 km/h 45.1 km/h 79 % 0 mm 0 W/m2
22:48 10.7 °C 7.2 °C 1010.4 hPa SW 22.5 km/h 35.4 km/h 79 % 0 mm 0 W/m2
22:53 10.8 °C 7.3 °C 1010.4 hPa SW 29 km/h 43.5 km/h 79 % 0 mm 0 W/m2
22:55 10.8 °C 7.3 °C 1010.4 hPa SW 27.4 km/h 45.1 km/h 79 % 0 mm 0 W/m2
23:00 10.7 °C 7.2 °C 1010.4 hPa SW 24.1 km/h 43.5 km/h 79 % 0 mm 0 W/m2
23:05 10.8 °C 7.3 °C 1010 hPa WSW 27.4 km/h 41.8 km/h 79 % 0 mm 0 W/m2
23:09 10.8 °C 7.1 °C 1010.4 hPa SW 30.6 km/h 53.1 km/h 78 % 0 mm 0 W/m2
23:14 10.9 °C 7.2 °C 1010.4 hPa WSW 22.5 km/h 35.4 km/h 78 % 0 mm 0 W/m2
23:19 11 °C 7.3 °C 1010.4 hPa WSW 25.7 km/h 38.6 km/h 78 % 0 mm 0 W/m2
23:24 11 °C 7.3 °C 1010.4 hPa SW 27.4 km/h 46.7 km/h 78 % 0 mm 0 W/m2
23:28 11 °C 7.3 °C 1010 hPa WSW 24.1 km/h 33.8 km/h 78 % 0 mm 0 W/m2
23:33 10.9 °C 7.2 °C 1010 hPa SW 25.7 km/h 38.6 km/h 78 % 0 mm 0 W/m2
23:34 10.9 °C 7.2 °C 1010 hPa WSW 25.7 km/h 37 km/h 78 % 0 mm 0 W/m2
23:35 10.9 °C 7.2 °C 1010 hPa WSW 25.7 km/h 37 km/h 78 % 0 mm 0 W/m2
23:40 10.9 °C 7.2 °C 1010 hPa SW 30.6 km/h 45.1 km/h 78 % 0 mm 0 W/m2
23:45 10.9 °C 7.2 °C 1010 hPa SW 27.4 km/h 38.6 km/h 78 % 0 mm 0 W/m2
23:46 10.9 °C 7.2 °C 1010 hPa SW 29 km/h 38.6 km/h 78 % 0 mm 0 W/m2
23:51 10.8 °C 7.3 °C 1009.7 hPa SW 27.4 km/h 45.1 km/h 79 % 0 mm 0 W/m2
23:54 10.8 °C 7.3 °C 1009.7 hPa SW 30.6 km/h 53.1 km/h 79 % 0 mm 0 W/m2
23:55 10.8 °C 7.3 °C 1009.7 hPa SW 32.2 km/h 53.1 km/h 79 % 0 mm 0 W/m2
Delerius-Weather
Compliments of Weather Underground - 3 mb

Data updates at regular intervals.